Preview of NWS' New Version of Forecast
This preview is not operational and should not be used for support decisions.

Terminal Aerodrome Forecast (TAF)

Issued by National Weather Service (NWS)

                            
000
FTUS42 KMFL 131451 AAB
TAFMIA
TAF AMD
KMIA 131451Z 1315/1418 32004KT P6SM FEW025 SCT250
     FM131830 08007KT P6SM VCSH SCT025
     FM140600 00000KT P6SM SCT025
     FM141200 09010KT P6SM VCSH SCT025=